sensor_id;sensor_type;location;lat;lon;timestamp;temperature;humidity
27200;DHT22;14714;48.106;11.546;2022-11-15T00:00:30;2.30;99.90
27200;DHT22;14714;48.106;11.546;2022-11-15T00:02:57;2.30;99.90
27200;DHT22;14714;48.106;11.546;2022-11-15T00:05:24;2.30;99.90
27200;DHT22;14714;48.106;11.546;2022-11-15T00:07:51;2.30;99.90
27200;DHT22;14714;48.106;11.546;2022-11-15T00:10:21;2.30;99.90
27200;DHT22;14714;48.106;11.546;2022-11-15T00:12:48;2.20;99.90
27200;DHT22;14714;48.106;11.546;2022-11-15T00:15:15;2.20;99.90
27200;DHT22;14714;48.106;11.546;2022-11-15T00:17:41;2.10;99.90
27200;DHT22;14714;48.106;11.546;2022-11-15T00:20:08;2.20;99.90
27200;DHT22;14714;48.106;11.546;2022-11-15T00:22:35;2.20;99.90
27200;DHT22;14714;48.106;11.546;2022-11-15T00:25:02;2.10;99.90
27200;DHT22;14714;48.106;11.546;2022-11-15T00:27:29;2.10;99.90
27200;DHT22;14714;48.106;11.546;2022-11-15T00:29:56;2.10;99.90
27200;DHT22;14714;48.106;11.546;2022-11-15T00:32:23;2.10;99.90
27200;DHT22;14714;48.106;11.546;2022-11-15T00:34:49;2.10;99.90
27200;DHT22;14714;48.106;11.546;2022-11-15T00:37:16;2.10;99.90
27200;DHT22;14714;48.106;11.546;2022-11-15T00:39:42;2.10;99.90
27200;DHT22;14714;48.106;11.546;2022-11-15T00:42:09;2.00;99.90
27200;DHT22;14714;48.106;11.546;2022-11-15T00:44:36;2.00;99.90
27200;DHT22;14714;48.106;11.546;2022-11-15T00:47:02;2.10;99.90
27200;DHT22;14714;48.106;11.546;2022-11-15T00:49:29;2.10;99.90
27200;DHT22;14714;48.106;11.546;2022-11-15T00:51:56;2.10;99.90
27200;DHT22;14714;48.106;11.546;2022-11-15T00:54:22;2.10;99.90
27200;DHT22;14714;48.106;11.546;2022-11-15T00:56:49;2.00;99.90
27200;DHT22;14714;48.106;11.546;2022-11-15T00:59:16;2.00;99.90
27200;DHT22;14714;48.106;11.546;2022-11-15T01:01:42;2.00;99.90
27200;DHT22;14714;48.106;11.546;2022-11-15T01:04:09;2.00;99.90
27200;DHT22;14714;48.106;11.546;2022-11-15T01:06:36;2.00;99.90
27200;DHT22;14714;48.106;11.546;2022-11-15T01:09:02;2.00;99.90
27200;DHT22;14714;48.106;11.546;2022-11-15T01:11:29;2.00;99.90
27200;DHT22;14714;48.106;11.546;2022-11-15T01:13:56;2.00;99.90
27200;DHT22;14714;48.106;11.546;2022-11-15T01:16:22;2.00;99.90
27200;DHT22;14714;48.106;11.546;2022-11-15T01:18:50;1.90;99.90
27200;DHT22;14714;48.106;11.546;2022-11-15T01:21:17;2.00;99.90
27200;DHT22;14714;48.106;11.546;2022-11-15T01:23:44;1.90;99.90
27200;DHT22;14714;48.106;11.546;2022-11-15T01:26:12;1.90;99.90
27200;DHT22;14714;48.106;11.546;2022-11-15T01:28:39;1.90;99.90
27200;DHT22;14714;48.106;11.546;2022-11-15T01:31:09;1.90;99.90
27200;DHT22;14714;48.106;11.546;2022-11-15T01:33:36;1.90;99.90
27200;DHT22;14714;48.106;11.546;2022-11-15T01:36:07;1.90;99.90
27200;DHT22;14714;48.106;11.546;2022-11-15T01:38:34;1.90;99.90
27200;DHT22;14714;48.106;11.546;2022-11-15T01:41:00;1.90;99.90
27200;DHT22;14714;48.106;11.546;2022-11-15T01:43:28;1.90;99.90
27200;DHT22;14714;48.106;11.546;2022-11-15T01:46:01;1.80;99.90
27200;DHT22;14714;48.106;11.546;2022-11-15T01:48:30;1.90;99.90
27200;DHT22;14714;48.106;11.546;2022-11-15T01:50:58;1.90;99.90
27200;DHT22;14714;48.106;11.546;2022-11-15T01:53:26;1.80;99.90
27200;DHT22;14714;48.106;11.546;2022-11-15T01:55:52;1.90;99.90
27200;DHT22;14714;48.106;11.546;2022-11-15T01:58:20;1.80;99.90
27200;DHT22;14714;48.106;11.546;2022-11-15T02:00:46;1.80;99.90
27200;DHT22;14714;48.106;11.546;2022-11-15T02:03:14;1.80;99.90
27200;DHT22;14714;48.106;11.546;2022-11-15T02:05:41;1.80;99.90
27200;DHT22;14714;48.106;11.546;2022-11-15T02:08:08;1.70;99.90
27200;DHT22;14714;48.106;11.546;2022-11-15T02:10:35;1.70;99.90
27200;DHT22;14714;48.106;11.546;2022-11-15T02:13:01;1.70;99.90
27200;DHT22;14714;48.106;11.546;2022-11-15T02:15:30;1.70;99.90
27200;DHT22;14714;48.106;11.546;2022-11-15T02:20:35;1.70;99.90
27200;DHT22;14714;48.106;11.546;2022-11-15T02:31:14;1.60;99.90
27200;DHT22;14714;48.106;11.546;2022-11-15T02:34:01;1.60;99.90
27200;DHT22;14714;48.106;11.546;2022-11-15T02:39:25;1.50;99.90
27200;DHT22;14714;48.106;11.546;2022-11-15T02:41:54;1.50;99.90
27200;DHT22;14714;48.106;11.546;2022-11-15T02:44:25;1.50;99.90
27200;DHT22;14714;48.106;11.546;2022-11-15T02:46:54;1.50;99.90
27200;DHT22;14714;48.106;11.546;2022-11-15T02:49:48;1.50;99.90
27200;DHT22;14714;48.106;11.546;2022-11-15T02:52:16;1.50;99.90
27200;DHT22;14714;48.106;11.546;2022-11-15T02:54:52;1.50;99.90
27200;DHT22;14714;48.106;11.546;2022-11-15T02:57:19;1.40;99.90
27200;DHT22;14714;48.106;11.546;2022-11-15T02:59:50;1.40;99.90
27200;DHT22;14714;48.106;11.546;2022-11-15T03:07:27;1.40;99.90
27200;DHT22;14714;48.106;11.546;2022-11-15T03:12:36;1.40;99.90
27200;DHT22;14714;48.106;11.546;2022-11-15T03:15:09;1.40;99.90
27200;DHT22;14714;48.106;11.546;2022-11-15T03:17:49;1.50;99.90
27200;DHT22;14714;48.106;11.546;2022-11-15T03:20:18;1.40;99.90
27200;DHT22;14714;48.106;11.546;2022-11-15T03:22:45;1.50;99.90
27200;DHT22;14714;48.106;11.546;2022-11-15T03:25:15;1.40;99.90
27200;DHT22;14714;48.106;11.546;2022-11-15T03:27:44;1.40;99.90
27200;DHT22;14714;48.106;11.546;2022-11-15T03:30:12;1.50;99.90
27200;DHT22;14714;48.106;11.546;2022-11-15T03:32:41;1.40;99.90
27200;DHT22;14714;48.106;11.546;2022-11-15T03:35:30;1.50;99.90
27200;DHT22;14714;48.106;11.546;2022-11-15T03:38:09;1.40;99.90
27200;DHT22;14714;48.106;11.546;2022-11-15T03:40:39;1.40;99.90
27200;DHT22;14714;48.106;11.546;2022-11-15T03:45:56;1.40;99.90
27200;DHT22;14714;48.106;11.546;2022-11-15T03:48:26;1.40;99.90
27200;DHT22;14714;48.106;11.546;2022-11-15T03:50:53;1.40;99.90
27200;DHT22;14714;48.106;11.546;2022-11-15T03:53:20;1.40;99.90
27200;DHT22;14714;48.106;11.546;2022-11-15T03:55:47;1.40;99.90
27200;DHT22;14714;48.106;11.546;2022-11-15T03:58:14;1.30;99.90
27200;DHT22;14714;48.106;11.546;2022-11-15T04:00:40;1.30;99.90
27200;DHT22;14714;48.106;11.546;2022-11-15T04:03:07;1.20;99.90
27200;DHT22;14714;48.106;11.546;2022-11-15T04:05:34;1.20;99.90
27200;DHT22;14714;48.106;11.546;2022-11-15T04:08:01;1.20;99.90
27200;DHT22;14714;48.106;11.546;2022-11-15T04:10:27;1.20;99.90
27200;DHT22;14714;48.106;11.546;2022-11-15T04:12:54;1.20;99.90
27200;DHT22;14714;48.106;11.546;2022-11-15T04:15:22;1.20;99.90
27200;DHT22;14714;48.106;11.546;2022-11-15T04:17:50;1.20;99.90
27200;DHT22;14714;48.106;11.546;2022-11-15T04:20:18;1.20;99.90
27200;DHT22;14714;48.106;11.546;2022-11-15T04:23:13;1.20;99.90
27200;DHT22;14714;48.106;11.546;2022-11-15T04:26:00;1.20;99.90
27200;DHT22;14714;48.106;11.546;2022-11-15T04:28:27;1.20;99.90
27200;DHT22;14714;48.106;11.546;2022-11-15T04:30:54;1.10;99.90
27200;DHT22;14714;48.106;11.546;2022-11-15T04:33:21;1.10;99.90
27200;DHT22;14714;48.106;11.546;2022-11-15T04:35:47;1.10;99.90
27200;DHT22;14714;48.106;11.546;2022-11-15T04:38:35;1.10;99.90
27200;DHT22;14714;48.106;11.546;2022-11-15T04:41:02;1.00;99.90
27200;DHT22;14714;48.106;11.546;2022-11-15T04:43:28;1.00;99.90
27200;DHT22;14714;48.106;11.546;2022-11-15T04:45:56;1.00;99.90
27200;DHT22;14714;48.106;11.546;2022-11-15T04:48:22;1.00;99.90
27200;DHT22;14714;48.106;11.546;2022-11-15T04:50:49;1.00;99.90
27200;DHT22;14714;48.106;11.546;2022-11-15T04:53:16;1.00;99.90
27200;DHT22;14714;48.106;11.546;2022-11-15T04:55:47;1.00;99.90
27200;DHT22;14714;48.106;11.546;2022-11-15T04:58:14;1.00;99.90
27200;DHT22;14714;48.106;11.546;2022-11-15T05:00:40;1.00;99.90
27200;DHT22;14714;48.106;11.546;2022-11-15T05:03:08;1.00;99.90
27200;DHT22;14714;48.106;11.546;2022-11-15T05:05:54;1.00;99.90
27200;DHT22;14714;48.106;11.546;2022-11-15T05:08:20;0.90;99.90
27200;DHT22;14714;48.106;11.546;2022-11-15T05:10:47;0.90;99.90
27200;DHT22;14714;48.106;11.546;2022-11-15T05:13:14;0.90;99.90
27200;DHT22;14714;48.106;11.546;2022-11-15T05:15:40;0.90;99.90
27200;DHT22;14714;48.106;11.546;2022-11-15T05:18:07;0.90;99.90
27200;DHT22;14714;48.106;11.546;2022-11-15T05:20:34;0.90;99.90
27200;DHT22;14714;48.106;11.546;2022-11-15T05:23:00;0.90;99.90
27200;DHT22;14714;48.106;11.546;2022-11-15T05:25:27;0.90;99.90
27200;DHT22;14714;48.106;11.546;2022-11-15T05:27:54;0.90;99.90
27200;DHT22;14714;48.106;11.546;2022-11-15T05:30:20;0.90;99.90
27200;DHT22;14714;48.106;11.546;2022-11-15T05:32:47;0.90;99.90
27200;DHT22;14714;48.106;11.546;2022-11-15T05:35:19;0.90;99.90
27200;DHT22;14714;48.106;11.546;2022-11-15T05:37:46;0.90;99.90
27200;DHT22;14714;48.106;11.546;2022-11-15T05:40:13;0.90;99.90
27200;DHT22;14714;48.106;11.546;2022-11-15T05:42:39;0.80;99.90
27200;DHT22;14714;48.106;11.546;2022-11-15T05:45:06;0.80;99.90
27200;DHT22;14714;48.106;11.546;2022-11-15T05:47:34;0.80;99.90
27200;DHT22;14714;48.106;11.546;2022-11-15T05:50:02;0.80;99.90
27200;DHT22;14714;48.106;11.546;2022-11-15T05:52:29;0.80;99.90
27200;DHT22;14714;48.106;11.546;2022-11-15T05:54:57;0.70;99.90
27200;DHT22;14714;48.106;11.546;2022-11-15T05:57:24;0.70;99.90
27200;DHT22;14714;48.106;11.546;2022-11-15T05:59:51;0.70;99.90
27200;DHT22;14714;48.106;11.546;2022-11-15T06:02:18;0.70;99.90
27200;DHT22;14714;48.106;11.546;2022-11-15T06:04:44;0.70;99.90
27200;DHT22;14714;48.106;11.546;2022-11-15T06:07:11;0.70;99.90
27200;DHT22;14714;48.106;11.546;2022-11-15T06:09:38;0.70;99.90
27200;DHT22;14714;48.106;11.546;2022-11-15T06:12:04;0.70;99.90
27200;DHT22;14714;48.106;11.546;2022-11-15T06:14:31;0.70;99.90
27200;DHT22;14714;48.106;11.546;2022-11-15T06:16:58;0.70;99.90
27200;DHT22;14714;48.106;11.546;2022-11-15T06:19:24;0.70;99.90
27200;DHT22;14714;48.106;11.546;2022-11-15T06:21:51;0.70;99.90
27200;DHT22;14714;48.106;11.546;2022-11-15T06:24:17;0.70;99.90
27200;DHT22;14714;48.106;11.546;2022-11-15T06:26:44;0.70;99.90
27200;DHT22;14714;48.106;11.546;2022-11-15T06:29:11;0.80;99.90
27200;DHT22;14714;48.106;11.546;2022-11-15T06:31:37;0.80;99.90
27200;DHT22;14714;48.106;11.546;2022-11-15T06:34:04;0.80;99.90
27200;DHT22;14714;48.106;11.546;2022-11-15T06:36:30;0.80;99.90
27200;DHT22;14714;48.106;11.546;2022-11-15T06:38:57;0.80;99.90
27200;DHT22;14714;48.106;11.546;2022-11-15T06:41:24;0.80;99.90
27200;DHT22;14714;48.106;11.546;2022-11-15T06:43:51;0.80;99.90
27200;DHT22;14714;48.106;11.546;2022-11-15T06:46:17;0.80;99.90
27200;DHT22;14714;48.106;11.546;2022-11-15T06:48:44;0.90;99.90
27200;DHT22;14714;48.106;11.546;2022-11-15T06:51:11;0.90;99.90
27200;DHT22;14714;48.106;11.546;2022-11-15T06:53:37;0.90;99.90
27200;DHT22;14714;48.106;11.546;2022-11-15T06:56:05;0.90;99.90
27200;DHT22;14714;48.106;11.546;2022-11-15T06:58:32;0.90;99.90
27200;DHT22;14714;48.106;11.546;2022-11-15T07:01:03;1.00;99.90
27200;DHT22;14714;48.106;11.546;2022-11-15T07:03:30;1.00;99.90
27200;DHT22;14714;48.106;11.546;2022-11-15T07:05:57;1.10;99.90
27200;DHT22;14714;48.106;11.546;2022-11-15T07:08:31;1.10;99.90
27200;DHT22;14714;48.106;11.546;2022-11-15T07:10:58;1.20;99.90
27200;DHT22;14714;48.106;11.546;2022-11-15T07:13:26;1.20;99.90
27200;DHT22;14714;48.106;11.546;2022-11-15T07:15:53;1.30;99.90
27200;DHT22;14714;48.106;11.546;2022-11-15T07:18:19;1.30;99.90
27200;DHT22;14714;48.106;11.546;2022-11-15T07:20:46;1.50;99.90
27200;DHT22;14714;48.106;11.546;2022-11-15T07:23:13;1.70;99.90
27200;DHT22;14714;48.106;11.546;2022-11-15T07:25:40;2.00;99.90
27200;DHT22;14714;48.106;11.546;2022-11-15T07:28:07;2.10;99.90
27200;DHT22;14714;48.106;11.546;2022-11-15T07:30:34;2.20;99.90
27200;DHT22;14714;48.106;11.546;2022-11-15T07:33:01;2.20;99.90
27200;DHT22;14714;48.106;11.546;2022-11-15T07:35:28;2.30;99.90
27200;DHT22;14714;48.106;11.546;2022-11-15T07:38:01;2.40;99.90
27200;DHT22;14714;48.106;11.546;2022-11-15T07:40:29;2.40;99.90
27200;DHT22;14714;48.106;11.546;2022-11-15T07:43:03;2.50;99.90
27200;DHT22;14714;48.106;11.546;2022-11-15T07:45:30;2.60;99.90
27200;DHT22;14714;48.106;11.546;2022-11-15T07:47:59;2.70;99.90
27200;DHT22;14714;48.106;11.546;2022-11-15T07:50:26;2.80;99.90
27200;DHT22;14714;48.106;11.546;2022-11-15T07:52:55;2.80;99.90
27200;DHT22;14714;48.106;11.546;2022-11-15T07:55:22;3.00;99.90
27200;DHT22;14714;48.106;11.546;2022-11-15T07:57:49;3.40;99.90
27200;DHT22;14714;48.106;11.546;2022-11-15T08:00:16;3.80;99.90
27200;DHT22;14714;48.106;11.546;2022-11-15T08:02:42;4.10;99.90
27200;DHT22;14714;48.106;11.546;2022-11-15T08:05:09;4.40;99.90
27200;DHT22;14714;48.106;11.546;2022-11-15T08:07:36;4.60;99.90
27200;DHT22;14714;48.106;11.546;2022-11-15T08:10:04;4.70;99.90
27200;DHT22;14714;48.106;11.546;2022-11-15T08:12:33;4.70;99.90
27200;DHT22;14714;48.106;11.546;2022-11-15T08:15:00;4.70;99.90
27200;DHT22;14714;48.106;11.546;2022-11-15T08:17:27;4.70;99.90
27200;DHT22;14714;48.106;11.546;2022-11-15T08:19:54;4.70;99.90
27200;DHT22;14714;48.106;11.546;2022-11-15T08:22:21;4.70;99.90
27200;DHT22;14714;48.106;11.546;2022-11-15T08:24:47;4.70;99.90
27200;DHT22;14714;48.106;11.546;2022-11-15T08:27:14;4.80;99.90
27200;DHT22;14714;48.106;11.546;2022-11-15T08:29:42;5.20;99.90
27200;DHT22;14714;48.106;11.546;2022-11-15T08:32:09;5.70;99.90
27200;DHT22;14714;48.106;11.546;2022-11-15T08:34:37;6.60;99.90
27200;DHT22;14714;48.106;11.546;2022-11-15T08:37:03;7.60;99.90
27200;DHT22;14714;48.106;11.546;2022-11-15T08:39:30;9.10;99.90
27200;DHT22;14714;48.106;11.546;2022-11-15T08:41:57;10.60;99.90
27200;DHT22;14714;48.106;11.546;2022-11-15T08:44:24;12.00;99.90
27200;DHT22;14714;48.106;11.546;2022-11-15T08:46:50;13.60;99.90
27200;DHT22;14714;48.106;11.546;2022-11-15T08:49:17;15.00;99.90
27200;DHT22;14714;48.106;11.546;2022-11-15T08:51:44;16.00;99.90
27200;DHT22;14714;48.106;11.546;2022-11-15T08:54:10;16.80;99.90
27200;DHT22;14714;48.106;11.546;2022-11-15T08:56:37;17.50;99.90
27200;DHT22;14714;48.106;11.546;2022-11-15T08:59:04;18.10;99.20
27200;DHT22;14714;48.106;11.546;2022-11-15T09:01:30;18.50;94.20
27200;DHT22;14714;48.106;11.546;2022-11-15T09:03:57;18.90;90.10
27200;DHT22;14714;48.106;11.546;2022-11-15T09:06:24;19.30;86.70
27200;DHT22;14714;48.106;11.546;2022-11-15T09:08:50;19.70;78.30
27200;DHT22;14714;48.106;11.546;2022-11-15T09:11:17;19.80;73.30
27200;DHT22;14714;48.106;11.546;2022-11-15T09:13:46;19.80;69.90
27200;DHT22;14714;48.106;11.546;2022-11-15T09:16:13;19.30;70.80
27200;DHT22;14714;48.106;11.546;2022-11-15T09:18:41;18.70;68.20
27200;DHT22;14714;48.106;11.546;2022-11-15T09:21:08;18.10;72.70
27200;DHT22;14714;48.106;11.546;2022-11-15T09:23:35;17.30;72.80
27200;DHT22;14714;48.106;11.546;2022-11-15T09:26:02;16.50;74.20
27200;DHT22;14714;48.106;11.546;2022-11-15T09:28:29;15.70;76.40
27200;DHT22;14714;48.106;11.546;2022-11-15T09:31:00;14.90;77.70
27200;DHT22;14714;48.106;11.546;2022-11-15T09:33:28;14.40;80.90
27200;DHT22;14714;48.106;11.546;2022-11-15T09:35:59;13.90;82.70
27200;DHT22;14714;48.106;11.546;2022-11-15T09:38:26;13.40;81.90
27200;DHT22;14714;48.106;11.546;2022-11-15T09:40:57;13.00;85.10
27200;DHT22;14714;48.106;11.546;2022-11-15T09:43:30;12.70;85.50
27200;DHT22;14714;48.106;11.546;2022-11-15T09:46:06;12.60;85.10
27200;DHT22;14714;48.106;11.546;2022-11-15T09:51:03;12.40;86.40
27200;DHT22;14714;48.106;11.546;2022-11-15T09:53:37;12.30;87.00
27200;DHT22;14714;48.106;11.546;2022-11-15T09:56:27;12.10;86.10
27200;DHT22;14714;48.106;11.546;2022-11-15T10:01:28;11.80;90.10
27200;DHT22;14714;48.106;11.546;2022-11-15T10:03:59;11.70;91.20
27200;DHT22;14714;48.106;11.546;2022-11-15T10:06:26;11.60;90.00
27200;DHT22;14714;48.106;11.546;2022-11-15T10:08:58;11.50;90.30
27200;DHT22;14714;48.106;11.546;2022-11-15T10:11:27;11.50;90.10
27200;DHT22;14714;48.106;11.546;2022-11-15T10:14:07;11.50;91.20
27200;DHT22;14714;48.106;11.546;2022-11-15T10:24:11;11.80;91.40
27200;DHT22;14714;48.106;11.546;2022-11-15T10:26:38;11.90;91.30
27200;DHT22;14714;48.106;11.546;2022-11-15T10:29:05;11.90;90.00
27200;DHT22;14714;48.106;11.546;2022-11-15T10:31:31;12.00;90.00
27200;DHT22;14714;48.106;11.546;2022-11-15T10:34:18;12.10;90.20
27200;DHT22;14714;48.106;11.546;2022-11-15T10:36:46;12.20;89.70
27200;DHT22;14714;48.106;11.546;2022-11-15T10:39:15;12.30;89.80
27200;DHT22;14714;48.106;11.546;2022-11-15T10:41:42;12.50;89.70
27200;DHT22;14714;48.106;11.546;2022-11-15T10:44:11;12.60;88.80
27200;DHT22;14714;48.106;11.546;2022-11-15T10:46:39;12.80;89.10
27200;DHT22;14714;48.106;11.546;2022-11-15T10:49:20;12.90;87.90
27200;DHT22;14714;48.106;11.546;2022-11-15T10:51:48;13.10;86.80
27200;DHT22;14714;48.106;11.546;2022-11-15T10:56:51;13.40;86.30
27200;DHT22;14714;48.106;11.546;2022-11-15T10:59:32;13.60;84.40
27200;DHT22;14714;48.106;11.546;2022-11-15T11:04:50;13.70;85.80
27200;DHT22;14714;48.106;11.546;2022-11-15T11:07:21;13.70;84.90
27200;DHT22;14714;48.106;11.546;2022-11-15T11:09:56;13.60;84.40
27200;DHT22;14714;48.106;11.546;2022-11-15T11:12:27;13.50;84.50
27200;DHT22;14714;48.106;11.546;2022-11-15T11:14:54;13.50;85.50
27200;DHT22;14714;48.106;11.546;2022-11-15T11:17:45;13.50;82.70
27200;DHT22;14714;48.106;11.546;2022-11-15T11:20:16;13.50;81.10
27200;DHT22;14714;48.106;11.546;2022-11-15T11:22:57;13.60;81.30
27200;DHT22;14714;48.106;11.546;2022-11-15T11:25:43;13.70;79.90
27200;DHT22;14714;48.106;11.546;2022-11-15T11:33:31;13.70;79.30
27200;DHT22;14714;48.106;11.546;2022-11-15T11:36:12;13.70;81.00
27200;DHT22;14714;48.106;11.546;2022-11-15T11:46:17;13.50;79.80
27200;DHT22;14714;48.106;11.546;2022-11-15T11:51:46;13.40;79.70
27200;DHT22;14714;48.106;11.546;2022-11-15T11:56:44;13.30;81.00
27200;DHT22;14714;48.106;11.546;2022-11-15T12:01:40;13.30;80.20
27200;DHT22;14714;48.106;11.546;2022-11-15T12:04:42;13.30;80.50
27200;DHT22;14714;48.106;11.546;2022-11-15T12:07:02;13.40;80.80
27200;DHT22;14714;48.106;11.546;2022-11-15T12:09:44;13.30;79.50
27200;DHT22;14714;48.106;11.546;2022-11-15T12:14:46;13.30;80.20
27200;DHT22;14714;48.106;11.546;2022-11-15T12:17:16;13.30;80.90
27200;DHT22;14714;48.106;11.546;2022-11-15T12:19:44;13.30;80.60
27200;DHT22;14714;48.106;11.546;2022-11-15T12:22:19;13.30;81.00
27200;DHT22;14714;48.106;11.546;2022-11-15T12:25:32;13.30;80.30
27200;DHT22;14714;48.106;11.546;2022-11-15T12:27:38;13.30;80.40
27200;DHT22;14714;48.106;11.546;2022-11-15T12:30:11;13.20;81.10
27200;DHT22;14714;48.106;11.546;2022-11-15T12:32:39;13.20;81.90
27200;DHT22;14714;48.106;11.546;2022-11-15T12:35:20;13.20;81.90
27200;DHT22;14714;48.106;11.546;2022-11-15T12:37:48;13.20;81.20
27200;DHT22;14714;48.106;11.546;2022-11-15T12:40:23;13.20;81.00
27200;DHT22;14714;48.106;11.546;2022-11-15T12:45:36;13.20;81.30
27200;DHT22;14714;48.106;11.546;2022-11-15T13:01:07;13.30;80.30
27200;DHT22;14714;48.106;11.546;2022-11-15T13:03:34;13.30;80.60
27200;DHT22;14714;48.106;11.546;2022-11-15T13:06:03;13.30;80.80
27200;DHT22;14714;48.106;11.546;2022-11-15T13:08:37;13.30;80.30
27200;DHT22;14714;48.106;11.546;2022-11-15T13:13:50;13.30;79.90
27200;DHT22;14714;48.106;11.546;2022-11-15T13:16:20;13.30;81.20
27200;DHT22;14714;48.106;11.546;2022-11-15T13:18:53;13.40;81.50
27200;DHT22;14714;48.106;11.546;2022-11-15T13:21:22;13.40;80.60
27200;DHT22;14714;48.106;11.546;2022-11-15T13:24:15;13.40;79.80
27200;DHT22;14714;48.106;11.546;2022-11-15T13:26:42;13.40;79.90
27200;DHT22;14714;48.106;11.546;2022-11-15T13:29:14;13.40;79.80
27200;DHT22;14714;48.106;11.546;2022-11-15T13:31:42;13.40;80.00
27200;DHT22;14714;48.106;11.546;2022-11-15T13:34:17;13.40;79.90
27200;DHT22;14714;48.106;11.546;2022-11-15T13:37:10;13.40;79.80
27200;DHT22;14714;48.106;11.546;2022-11-15T13:39:39;13.40;79.70
27200;DHT22;14714;48.106;11.546;2022-11-15T13:42:13;13.40;81.60
27200;DHT22;14714;48.106;11.546;2022-11-15T13:44:40;13.40;81.30
27200;DHT22;14714;48.106;11.546;2022-11-15T13:47:20;13.40;80.30
27200;DHT22;14714;48.106;11.546;2022-11-15T13:49:46;13.40;80.90
27200;DHT22;14714;48.106;11.546;2022-11-15T13:52:14;13.40;81.60
27200;DHT22;14714;48.106;11.546;2022-11-15T13:54:43;13.40;81.00
27200;DHT22;14714;48.106;11.546;2022-11-15T13:57:21;13.40;80.60
27200;DHT22;14714;48.106;11.546;2022-11-15T13:59:52;13.30;80.90
27200;DHT22;14714;48.106;11.546;2022-11-15T14:02:30;13.30;80.90
27200;DHT22;14714;48.106;11.546;2022-11-15T14:05:19;13.30;81.20
27200;DHT22;14714;48.106;11.546;2022-11-15T14:08:03;13.30;81.20
27200;DHT22;14714;48.106;11.546;2022-11-15T14:10:33;13.20;82.00
27200;DHT22;14714;48.106;11.546;2022-11-15T14:13:00;13.20;83.20
27200;DHT22;14714;48.106;11.546;2022-11-15T14:15:36;13.10;83.40
27200;DHT22;14714;48.106;11.546;2022-11-15T14:18:04;13.10;83.60
27200;DHT22;14714;48.106;11.546;2022-11-15T14:23:00;13.00;84.10
27200;DHT22;14714;48.106;11.546;2022-11-15T14:25:28;13.00;83.90
27200;DHT22;14714;48.106;11.546;2022-11-15T14:28:12;13.00;83.80
27200;DHT22;14714;48.106;11.546;2022-11-15T14:30:39;12.90;84.80
27200;DHT22;14714;48.106;11.546;2022-11-15T14:35:45;12.80;86.20
27200;DHT22;14714;48.106;11.546;2022-11-15T14:38:11;12.70;87.30
27200;DHT22;14714;48.106;11.546;2022-11-15T14:40:38;12.70;88.20
27200;DHT22;14714;48.106;11.546;2022-11-15T14:43:07;12.60;89.60
27200;DHT22;14714;48.106;11.546;2022-11-15T14:45:34;12.50;90.60
27200;DHT22;14714;48.106;11.546;2022-11-15T14:48:01;12.40;90.00
27200;DHT22;14714;48.106;11.546;2022-11-15T14:50:28;12.20;90.50
27200;DHT22;14714;48.106;11.546;2022-11-15T14:52:54;12.10;91.70
27200;DHT22;14714;48.106;11.546;2022-11-15T14:55:22;12.00;91.50
27200;DHT22;14714;48.106;11.546;2022-11-15T14:57:49;11.90;91.60
27200;DHT22;14714;48.106;11.546;2022-11-15T15:00:16;11.80;91.80
27200;DHT22;14714;48.106;11.546;2022-11-15T15:02:44;11.70;92.20
27200;DHT22;14714;48.106;11.546;2022-11-15T15:05:13;11.50;92.50
27200;DHT22;14714;48.106;11.546;2022-11-15T15:07:40;11.40;92.90
27200;DHT22;14714;48.106;11.546;2022-11-15T15:10:07;11.20;93.30
27200;DHT22;14714;48.106;11.546;2022-11-15T15:12:54;11.10;93.70
27200;DHT22;14714;48.106;11.546;2022-11-15T15:15:25;11.00;94.20
27200;DHT22;14714;48.106;11.546;2022-11-15T15:17:52;10.80;94.30
27200;DHT22;14714;48.106;11.546;2022-11-15T15:20:18;10.70;94.70
27200;DHT22;14714;48.106;11.546;2022-11-15T15:22:45;10.60;95.10
27200;DHT22;14714;48.106;11.546;2022-11-15T15:27:44;10.40;95.80
27200;DHT22;14714;48.106;11.546;2022-11-15T15:30:11;10.30;96.70
27200;DHT22;14714;48.106;11.546;2022-11-15T15:32:38;10.20;97.50
27200;DHT22;14714;48.106;11.546;2022-11-15T15:35:05;10.20;98.40
27200;DHT22;14714;48.106;11.546;2022-11-15T15:37:31;10.10;99.20
27200;DHT22;14714;48.106;11.546;2022-11-15T15:39:59;10.00;99.60
27200;DHT22;14714;48.106;11.546;2022-11-15T15:42:26;10.00;99.90
27200;DHT22;14714;48.106;11.546;2022-11-15T15:44:52;9.90;99.90
27200;DHT22;14714;48.106;11.546;2022-11-15T15:47:20;9.90;99.90
27200;DHT22;14714;48.106;11.546;2022-11-15T15:49:47;9.80;99.90
27200;DHT22;14714;48.106;11.546;2022-11-15T15:52:13;9.80;99.90
27200;DHT22;14714;48.106;11.546;2022-11-15T15:54:40;9.70;99.90
27200;DHT22;14714;48.106;11.546;2022-11-15T15:57:07;9.60;99.90
27200;DHT22;14714;48.106;11.546;2022-11-15T15:59:35;9.60;99.90
27200;DHT22;14714;48.106;11.546;2022-11-15T16:02:01;9.60;99.90
27200;DHT22;14714;48.106;11.546;2022-11-15T16:04:28;9.60;99.90
27200;DHT22;14714;48.106;11.546;2022-11-15T16:06:58;9.60;99.90
27200;DHT22;14714;48.106;11.546;2022-11-15T16:09:25;9.50;99.90
27200;DHT22;14714;48.106;11.546;2022-11-15T16:12:11;9.40;99.90
27200;DHT22;14714;48.106;11.546;2022-11-15T16:14:37;9.40;99.90
27200;DHT22;14714;48.106;11.546;2022-11-15T16:17:04;9.30;99.90
27200;DHT22;14714;48.106;11.546;2022-11-15T16:19:31;9.20;99.90
27200;DHT22;14714;48.106;11.546;2022-11-15T16:21:58;9.10;99.90
27200;DHT22;14714;48.106;11.546;2022-11-15T16:24:24;9.00;99.90
27200;DHT22;14714;48.106;11.546;2022-11-15T16:26:51;9.00;99.90
27200;DHT22;14714;48.106;11.546;2022-11-15T16:29:18;8.90;99.90
27200;DHT22;14714;48.106;11.546;2022-11-15T16:31:45;8.90;99.90
27200;DHT22;14714;48.106;11.546;2022-11-15T16:34:11;8.80;99.90
27200;DHT22;14714;48.106;11.546;2022-11-15T16:36:38;8.80;99.90
27200;DHT22;14714;48.106;11.546;2022-11-15T16:39:05;8.70;99.90
27200;DHT22;14714;48.106;11.546;2022-11-15T16:41:31;8.70;99.90
27200;DHT22;14714;48.106;11.546;2022-11-15T16:43:58;8.60;99.90
27200;DHT22;14714;48.106;11.546;2022-11-15T16:46:25;8.60;99.90
27200;DHT22;14714;48.106;11.546;2022-11-15T16:48:52;8.60;99.90
27200;DHT22;14714;48.106;11.546;2022-11-15T16:51:19;8.50;99.90
27200;DHT22;14714;48.106;11.546;2022-11-15T16:53:46;8.50;99.90
27200;DHT22;14714;48.106;11.546;2022-11-15T16:56:27;8.50;99.90
27200;DHT22;14714;48.106;11.546;2022-11-15T16:58:55;8.40;99.90
27200;DHT22;14714;48.106;11.546;2022-11-15T17:01:24;8.40;99.90
27200;DHT22;14714;48.106;11.546;2022-11-15T17:03:52;8.30;99.90
27200;DHT22;14714;48.106;11.546;2022-11-15T17:06:19;8.30;99.90
27200;DHT22;14714;48.106;11.546;2022-11-15T17:08:46;8.20;99.90